sensor_id;sensor_type;location;lat;lon;timestamp;P1;durP1;ratioP1;P2;durP2;ratioP2
26080;SDS011;13991;51.174;4.438;2023-05-07T00:01:42;15.57;;;8.27;;
26080;SDS011;13991;51.174;4.438;2023-05-07T00:04:08;15.33;;;8.27;;
26080;SDS011;13991;51.174;4.438;2023-05-07T00:06:34;22.27;;;9.07;;
26080;SDS011;13991;51.174;4.438;2023-05-07T00:08:59;21.23;;;8.50;;
26080;SDS011;13991;51.174;4.438;2023-05-07T00:11:26;19.80;;;8.40;;
26080;SDS011;13991;51.174;4.438;2023-05-07T00:13:52;16.43;;;8.43;;
26080;SDS011;13991;51.174;4.438;2023-05-07T00:16:18;18.33;;;8.03;;
26080;SDS011;13991;51.174;4.438;2023-05-07T00:18:44;23.63;;;8.20;;
26080;SDS011;13991;51.174;4.438;2023-05-07T00:21:10;19.97;;;8.83;;
26080;SDS011;13991;51.174;4.438;2023-05-07T00:23:35;25.17;;;8.73;;
26080;SDS011;13991;51.174;4.438;2023-05-07T00:26:01;26.40;;;8.70;;
26080;SDS011;13991;51.174;4.438;2023-05-07T00:28:27;16.83;;;8.87;;
26080;SDS011;13991;51.174;4.438;2023-05-07T00:30:53;24.80;;;8.60;;
26080;SDS011;13991;51.174;4.438;2023-05-07T00:33:19;20.27;;;8.80;;
26080;SDS011;13991;51.174;4.438;2023-05-07T00:35:45;17.93;;;8.60;;
26080;SDS011;13991;51.174;4.438;2023-05-07T00:38:11;18.93;;;8.37;;
26080;SDS011;13991;51.174;4.438;2023-05-07T00:40:37;16.30;;;8.37;;
26080;SDS011;13991;51.174;4.438;2023-05-07T00:43:03;25.23;;;9.17;;
26080;SDS011;13991;51.174;4.438;2023-05-07T00:45:28;31.70;;;8.30;;
26080;SDS011;13991;51.174;4.438;2023-05-07T00:47:59;15.83;;;8.00;;
26080;SDS011;13991;51.174;4.438;2023-05-07T00:50:26;19.60;;;8.83;;
26080;SDS011;13991;51.174;4.438;2023-05-07T00:52:52;20.93;;;9.67;;
26080;SDS011;13991;51.174;4.438;2023-05-07T00:55:18;20.47;;;9.00;;
26080;SDS011;13991;51.174;4.438;2023-05-07T00:57:45;20.33;;;9.07;;
26080;SDS011;13991;51.174;4.438;2023-05-07T01:00:11;20.47;;;9.47;;
26080;SDS011;13991;51.174;4.438;2023-05-07T01:02:40;15.83;;;8.93;;
26080;SDS011;13991;51.174;4.438;2023-05-07T01:05:07;20.07;;;9.40;;
26080;SDS011;13991;51.174;4.438;2023-05-07T01:07:35;17.50;;;9.73;;
26080;SDS011;13991;51.174;4.438;2023-05-07T01:10:04;23.67;;;10.07;;
26080;SDS011;13991;51.174;4.438;2023-05-07T01:12:31;26.53;;;9.60;;
26080;SDS011;13991;51.174;4.438;2023-05-07T01:14:58;19.10;;;9.47;;
26080;SDS011;13991;51.174;4.438;2023-05-07T01:17:23;25.53;;;9.97;;
26080;SDS011;13991;51.174;4.438;2023-05-07T01:19:49;22.10;;;10.17;;
26080;SDS011;13991;51.174;4.438;2023-05-07T01:22:16;16.53;;;9.10;;
26080;SDS011;13991;51.174;4.438;2023-05-07T01:24:46;20.33;;;10.70;;
26080;SDS011;13991;51.174;4.438;2023-05-07T01:27:12;19.77;;;10.33;;
26080;SDS011;13991;51.174;4.438;2023-05-07T01:29:38;17.00;;;8.93;;
26080;SDS011;13991;51.174;4.438;2023-05-07T01:32:03;22.60;;;9.80;;
26080;SDS011;13991;51.174;4.438;2023-05-07T01:34:31;29.40;;;10.43;;
26080;SDS011;13991;51.174;4.438;2023-05-07T01:36:59;17.90;;;9.27;;
26080;SDS011;13991;51.174;4.438;2023-05-07T01:39:26;25.47;;;9.97;;
26080;SDS011;13991;51.174;4.438;2023-05-07T01:41:56;19.33;;;9.97;;
26080;SDS011;13991;51.174;4.438;2023-05-07T01:44:24;23.47;;;9.63;;
26080;SDS011;13991;51.174;4.438;2023-05-07T01:46:50;24.90;;;9.67;;
26080;SDS011;13991;51.174;4.438;2023-05-07T01:49:16;19.63;;;9.73;;
26080;SDS011;13991;51.174;4.438;2023-05-07T01:51:42;20.00;;;10.23;;
26080;SDS011;13991;51.174;4.438;2023-05-07T01:54:08;16.07;;;9.17;;
26080;SDS011;13991;51.174;4.438;2023-05-07T01:56:34;16.20;;;9.27;;
26080;SDS011;13991;51.174;4.438;2023-05-07T01:59:00;17.17;;;8.97;;
26080;SDS011;13991;51.174;4.438;2023-05-07T02:01:27;23.23;;;9.47;;
26080;SDS011;13991;51.174;4.438;2023-05-07T02:03:52;28.53;;;9.37;;
26080;SDS011;13991;51.174;4.438;2023-05-07T02:06:18;17.67;;;9.13;;
26080;SDS011;13991;51.174;4.438;2023-05-07T02:08:44;17.30;;;8.63;;
26080;SDS011;13991;51.174;4.438;2023-05-07T02:11:11;18.23;;;9.57;;
26080;SDS011;13991;51.174;4.438;2023-05-07T02:13:36;17.37;;;8.60;;
26080;SDS011;13991;51.174;4.438;2023-05-07T02:16:02;20.10;;;9.20;;
26080;SDS011;13991;51.174;4.438;2023-05-07T02:18:28;20.10;;;9.03;;
26080;SDS011;13991;51.174;4.438;2023-05-07T02:20:54;21.50;;;9.00;;
26080;SDS011;13991;51.174;4.438;2023-05-07T02:23:20;14.40;;;9.00;;
26080;SDS011;13991;51.174;4.438;2023-05-07T02:25:45;18.37;;;9.53;;
26080;SDS011;13991;51.174;4.438;2023-05-07T02:28:11;15.00;;;9.03;;
26080;SDS011;13991;51.174;4.438;2023-05-07T02:30:38;22.03;;;10.07;;
26080;SDS011;13991;51.174;4.438;2023-05-07T02:33:04;18.80;;;10.47;;
26080;SDS011;13991;51.174;4.438;2023-05-07T02:35:29;17.60;;;9.00;;
26080;SDS011;13991;51.174;4.438;2023-05-07T02:37:55;25.23;;;10.50;;
26080;SDS011;13991;51.174;4.438;2023-05-07T02:40:21;25.40;;;8.90;;
26080;SDS011;13991;51.174;4.438;2023-05-07T02:42:46;15.80;;;8.97;;
26080;SDS011;13991;51.174;4.438;2023-05-07T02:45:12;15.87;;;9.43;;
26080;SDS011;13991;51.174;4.438;2023-05-07T02:47:37;24.37;;;10.67;;
26080;SDS011;13991;51.174;4.438;2023-05-07T02:50:03;17.43;;;9.47;;
26080;SDS011;13991;51.174;4.438;2023-05-07T02:52:29;19.40;;;10.40;;
26080;SDS011;13991;51.174;4.438;2023-05-07T02:54:55;16.00;;;9.23;;
26080;SDS011;13991;51.174;4.438;2023-05-07T02:57:21;16.70;;;9.50;;
26080;SDS011;13991;51.174;4.438;2023-05-07T02:59:46;17.93;;;9.23;;
26080;SDS011;13991;51.174;4.438;2023-05-07T03:02:12;16.53;;;9.07;;
26080;SDS011;13991;51.174;4.438;2023-05-07T03:04:38;15.60;;;9.60;;
26080;SDS011;13991;51.174;4.438;2023-05-07T03:07:04;16.33;;;9.07;;
26080;SDS011;13991;51.174;4.438;2023-05-07T03:09:30;15.07;;;8.93;;
26080;SDS011;13991;51.174;4.438;2023-05-07T03:11:56;17.23;;;9.57;;
26080;SDS011;13991;51.174;4.438;2023-05-07T03:14:22;18.93;;;9.97;;
26080;SDS011;13991;51.174;4.438;2023-05-07T03:16:48;14.13;;;9.17;;
26080;SDS011;13991;51.174;4.438;2023-05-07T03:19:14;16.60;;;10.10;;
26080;SDS011;13991;51.174;4.438;2023-05-07T03:21:40;18.90;;;9.93;;
26080;SDS011;13991;51.174;4.438;2023-05-07T03:24:05;19.90;;;9.97;;
26080;SDS011;13991;51.174;4.438;2023-05-07T03:26:31;13.93;;;8.47;;
26080;SDS011;13991;51.174;4.438;2023-05-07T03:28:57;22.47;;;9.77;;
26080;SDS011;13991;51.174;4.438;2023-05-07T03:31:22;16.30;;;9.37;;
26080;SDS011;13991;51.174;4.438;2023-05-07T03:33:52;19.73;;;8.60;;
26080;SDS011;13991;51.174;4.438;2023-05-07T03:36:19;15.73;;;9.20;;
26080;SDS011;13991;51.174;4.438;2023-05-07T03:38:45;13.47;;;9.23;;
26080;SDS011;13991;51.174;4.438;2023-05-07T03:41:11;18.50;;;9.30;;
26080;SDS011;13991;51.174;4.438;2023-05-07T03:43:37;16.07;;;9.33;;
26080;SDS011;13991;51.174;4.438;2023-05-07T03:46:03;16.20;;;9.00;;
26080;SDS011;13991;51.174;4.438;2023-05-07T03:48:28;18.93;;;9.13;;
26080;SDS011;13991;51.174;4.438;2023-05-07T03:50:55;19.93;;;10.07;;
26080;SDS011;13991;51.174;4.438;2023-05-07T03:53:22;16.60;;;9.17;;
26080;SDS011;13991;51.174;4.438;2023-05-07T03:55:48;18.50;;;9.40;;
26080;SDS011;13991;51.174;4.438;2023-05-07T03:58:14;24.60;;;10.07;;
26080;SDS011;13991;51.174;4.438;2023-05-07T04:00:40;15.73;;;9.50;;
26080;SDS011;13991;51.174;4.438;2023-05-07T04:03:06;16.43;;;9.80;;
26080;SDS011;13991;51.174;4.438;2023-05-07T04:05:32;21.20;;;11.00;;
26080;SDS011;13991;51.174;4.438;2023-05-07T04:07:58;17.63;;;10.17;;
26080;SDS011;13991;51.174;4.438;2023-05-07T04:10:24;20.97;;;10.47;;
26080;SDS011;13991;51.174;4.438;2023-05-07T04:12:50;16.23;;;10.67;;
26080;SDS011;13991;51.174;4.438;2023-05-07T04:15:16;19.20;;;10.60;;
26080;SDS011;13991;51.174;4.438;2023-05-07T04:17:42;20.83;;;10.43;;
26080;SDS011;13991;51.174;4.438;2023-05-07T04:20:14;18.50;;;10.30;;
26080;SDS011;13991;51.174;4.438;2023-05-07T04:22:40;17.70;;;10.07;;
26080;SDS011;13991;51.174;4.438;2023-05-07T04:25:07;19.03;;;10.47;;
26080;SDS011;13991;51.174;4.438;2023-05-07T04:27:34;17.63;;;9.20;;
26080;SDS011;13991;51.174;4.438;2023-05-07T04:30:00;17.53;;;9.67;;
26080;SDS011;13991;51.174;4.438;2023-05-07T04:32:27;18.70;;;9.57;;
26080;SDS011;13991;51.174;4.438;2023-05-07T04:34:54;15.47;;;9.50;;
26080;SDS011;13991;51.174;4.438;2023-05-07T04:37:20;22.70;;;10.40;;
26080;SDS011;13991;51.174;4.438;2023-05-07T04:39:46;18.27;;;10.33;;
26080;SDS011;13991;51.174;4.438;2023-05-07T04:42:15;19.60;;;10.80;;
26080;SDS011;13991;51.174;4.438;2023-05-07T04:44:43;20.07;;;10.57;;
26080;SDS011;13991;51.174;4.438;2023-05-07T04:47:10;21.80;;;10.93;;
26080;SDS011;13991;51.174;4.438;2023-05-07T04:49:36;28.10;;;10.60;;
26080;SDS011;13991;51.174;4.438;2023-05-07T04:52:03;20.43;;;10.87;;
26080;SDS011;13991;51.174;4.438;2023-05-07T04:54:29;18.73;;;10.77;;
26080;SDS011;13991;51.174;4.438;2023-05-07T04:56:55;23.03;;;9.87;;
26080;SDS011;13991;51.174;4.438;2023-05-07T04:59:21;18.50;;;10.23;;
26080;SDS011;13991;51.174;4.438;2023-05-07T05:01:46;16.87;;;10.10;;
26080;SDS011;13991;51.174;4.438;2023-05-07T05:04:12;22.90;;;11.70;;
26080;SDS011;13991;51.174;4.438;2023-05-07T05:06:38;19.17;;;10.27;;
26080;SDS011;13991;51.174;4.438;2023-05-07T05:09:04;26.43;;;10.33;;
26080;SDS011;13991;51.174;4.438;2023-05-07T05:11:30;22.30;;;11.30;;
26080;SDS011;13991;51.174;4.438;2023-05-07T05:13:56;20.53;;;10.63;;
26080;SDS011;13991;51.174;4.438;2023-05-07T05:16:22;25.80;;;11.47;;
26080;SDS011;13991;51.174;4.438;2023-05-07T05:18:48;24.83;;;10.03;;
26080;SDS011;13991;51.174;4.438;2023-05-07T05:21:13;17.87;;;10.13;;
26080;SDS011;13991;51.174;4.438;2023-05-07T05:23:39;20.67;;;10.53;;
26080;SDS011;13991;51.174;4.438;2023-05-07T05:26:05;23.30;;;11.03;;
26080;SDS011;13991;51.174;4.438;2023-05-07T05:28:30;27.10;;;10.70;;
26080;SDS011;13991;51.174;4.438;2023-05-07T05:30:56;21.70;;;10.53;;
26080;SDS011;13991;51.174;4.438;2023-05-07T05:33:22;19.13;;;10.27;;
26080;SDS011;13991;51.174;4.438;2023-05-07T05:35:47;20.13;;;10.77;;
26080;SDS011;13991;51.174;4.438;2023-05-07T05:38:14;18.83;;;10.33;;
26080;SDS011;13991;51.174;4.438;2023-05-07T05:40:39;23.10;;;10.30;;
26080;SDS011;13991;51.174;4.438;2023-05-07T05:43:05;17.23;;;10.47;;
26080;SDS011;13991;51.174;4.438;2023-05-07T05:45:31;20.07;;;10.57;;
26080;SDS011;13991;51.174;4.438;2023-05-07T05:47:57;23.17;;;11.30;;
26080;SDS011;13991;51.174;4.438;2023-05-07T05:50:22;18.37;;;10.03;;
26080;SDS011;13991;51.174;4.438;2023-05-07T05:52:48;22.13;;;10.20;;
26080;SDS011;13991;51.174;4.438;2023-05-07T05:55:14;18.63;;;10.03;;
26080;SDS011;13991;51.174;4.438;2023-05-07T05:57:40;18.33;;;10.53;;
26080;SDS011;13991;51.174;4.438;2023-05-07T06:00:06;36.17;;;10.80;;
26080;SDS011;13991;51.174;4.438;2023-05-07T06:02:33;18.10;;;10.50;;
26080;SDS011;13991;51.174;4.438;2023-05-07T06:04:58;20.27;;;10.27;;
26080;SDS011;13991;51.174;4.438;2023-05-07T06:07:24;17.57;;;10.07;;
26080;SDS011;13991;51.174;4.438;2023-05-07T06:09:50;17.33;;;10.70;;
26080;SDS011;13991;51.174;4.438;2023-05-07T06:12:16;17.63;;;9.97;;
26080;SDS011;13991;51.174;4.438;2023-05-07T06:14:44;18.73;;;10.23;;
26080;SDS011;13991;51.174;4.438;2023-05-07T06:17:10;17.00;;;9.30;;
26080;SDS011;13991;51.174;4.438;2023-05-07T06:19:36;15.83;;;9.67;;
26080;SDS011;13991;51.174;4.438;2023-05-07T06:22:01;17.27;;;9.70;;
26080;SDS011;13991;51.174;4.438;2023-05-07T06:24:27;16.97;;;10.13;;
26080;SDS011;13991;51.174;4.438;2023-05-07T06:26:53;16.27;;;9.27;;
26080;SDS011;13991;51.174;4.438;2023-05-07T06:29:19;19.97;;;10.17;;
26080;SDS011;13991;51.174;4.438;2023-05-07T06:31:45;17.10;;;9.60;;
26080;SDS011;13991;51.174;4.438;2023-05-07T06:34:11;21.83;;;10.10;;
26080;SDS011;13991;51.174;4.438;2023-05-07T06:36:39;16.47;;;10.07;;
26080;SDS011;13991;51.174;4.438;2023-05-07T06:39:05;17.70;;;10.33;;
26080;SDS011;13991;51.174;4.438;2023-05-07T06:41:31;23.47;;;9.80;;
26080;SDS011;13991;51.174;4.438;2023-05-07T06:43:57;17.17;;;8.93;;
26080;SDS011;13991;51.174;4.438;2023-05-07T06:46:22;18.97;;;10.47;;
26080;SDS011;13991;51.174;4.438;2023-05-07T06:48:48;21.73;;;10.60;;
26080;SDS011;13991;51.174;4.438;2023-05-07T06:51:14;22.60;;;10.13;;
26080;SDS011;13991;51.174;4.438;2023-05-07T06:53:39;23.73;;;9.97;;
26080;SDS011;13991;51.174;4.438;2023-05-07T06:56:05;18.87;;;10.33;;
26080;SDS011;13991;51.174;4.438;2023-05-07T06:58:31;20.40;;;9.97;;
26080;SDS011;13991;51.174;4.438;2023-05-07T07:00:57;19.60;;;10.97;;
26080;SDS011;13991;51.174;4.438;2023-05-07T07:03:23;21.17;;;11.53;;
26080;SDS011;13991;51.174;4.438;2023-05-07T07:05:52;21.03;;;9.77;;
26080;SDS011;13991;51.174;4.438;2023-05-07T07:08:18;24.97;;;10.43;;
26080;SDS011;13991;51.174;4.438;2023-05-07T07:10:46;20.50;;;10.10;;
26080;SDS011;13991;51.174;4.438;2023-05-07T07:13:12;18.43;;;10.87;;
26080;SDS011;13991;51.174;4.438;2023-05-07T07:15:38;18.37;;;10.67;;
26080;SDS011;13991;51.174;4.438;2023-05-07T07:18:04;18.37;;;10.17;;
26080;SDS011;13991;51.174;4.438;2023-05-07T07:20:29;19.73;;;11.33;;
26080;SDS011;13991;51.174;4.438;2023-05-07T07:22:55;19.00;;;11.10;;
26080;SDS011;13991;51.174;4.438;2023-05-07T07:25:21;18.80;;;11.17;;
26080;SDS011;13991;51.174;4.438;2023-05-07T07:27:46;23.73;;;12.40;;
26080;SDS011;13991;51.174;4.438;2023-05-07T07:30:12;24.90;;;12.53;;
26080;SDS011;13991;51.174;4.438;2023-05-07T07:32:38;19.43;;;11.23;;
26080;SDS011;13991;51.174;4.438;2023-05-07T07:35:04;19.57;;;10.90;;
26080;SDS011;13991;51.174;4.438;2023-05-07T07:37:30;23.97;;;11.67;;
26080;SDS011;13991;51.174;4.438;2023-05-07T07:39:56;20.40;;;10.50;;
26080;SDS011;13991;51.174;4.438;2023-05-07T07:42:21;28.47;;;9.87;;
26080;SDS011;13991;51.174;4.438;2023-05-07T07:44:47;15.13;;;9.90;;
26080;SDS011;13991;51.174;4.438;2023-05-07T07:47:13;22.90;;;9.40;;
26080;SDS011;13991;51.174;4.438;2023-05-07T07:49:39;23.23;;;9.30;;
26080;SDS011;13991;51.174;4.438;2023-05-07T07:52:04;18.87;;;9.00;;
26080;SDS011;13991;51.174;4.438;2023-05-07T07:54:30;20.93;;;9.47;;
26080;SDS011;13991;51.174;4.438;2023-05-07T07:56:56;20.17;;;8.73;;
26080;SDS011;13991;51.174;4.438;2023-05-07T07:59:22;18.93;;;8.80;;
26080;SDS011;13991;51.174;4.438;2023-05-07T08:01:48;19.77;;;7.53;;
26080;SDS011;13991;51.174;4.438;2023-05-07T08:04:22;19.87;;;9.33;;
26080;SDS011;13991;51.174;4.438;2023-05-07T08:06:58;18.57;;;7.50;;
26080;SDS011;13991;51.174;4.438;2023-05-07T08:09:23;14.10;;;6.50;;
26080;SDS011;13991;51.174;4.438;2023-05-07T08:11:49;17.00;;;7.00;;
26080;SDS011;13991;51.174;4.438;2023-05-07T08:14:15;21.03;;;6.90;;
26080;SDS011;13991;51.174;4.438;2023-05-07T08:16:41;17.63;;;6.63;;
26080;SDS011;13991;51.174;4.438;2023-05-07T08:19:07;25.60;;;6.50;;
26080;SDS011;13991;51.174;4.438;2023-05-07T08:21:33;25.37;;;7.03;;
26080;SDS011;13991;51.174;4.438;2023-05-07T08:23:59;15.90;;;6.47;;
26080;SDS011;13991;51.174;4.438;2023-05-07T08:26:25;27.43;;;8.30;;
26080;SDS011;13991;51.174;4.438;2023-05-07T08:28:50;18.00;;;7.23;;
26080;SDS011;13991;51.174;4.438;2023-05-07T08:31:16;15.73;;;6.27;;
26080;SDS011;13991;51.174;4.438;2023-05-07T08:33:42;26.13;;;8.23;;
26080;SDS011;13991;51.174;4.438;2023-05-07T08:36:07;22.40;;;7.63;;
26080;SDS011;13991;51.174;4.438;2023-05-07T08:38:33;17.43;;;7.13;;
26080;SDS011;13991;51.174;4.438;2023-05-07T08:40:59;19.07;;;8.00;;
26080;SDS011;13991;51.174;4.438;2023-05-07T08:43:26;18.23;;;7.27;;
26080;SDS011;13991;51.174;4.438;2023-05-07T08:45:55;21.30;;;7.43;;
26080;SDS011;13991;51.174;4.438;2023-05-07T08:48:27;23.33;;;6.57;;
26080;SDS011;13991;51.174;4.438;2023-05-07T08:50:57;17.83;;;5.97;;
26080;SDS011;13991;51.174;4.438;2023-05-07T08:53:23;19.03;;;6.83;;
26080;SDS011;13991;51.174;4.438;2023-05-07T08:55:49;17.23;;;7.27;;
26080;SDS011;13991;51.174;4.438;2023-05-07T08:58:16;25.50;;;6.83;;
26080;SDS011;13991;51.174;4.438;2023-05-07T09:00:42;20.70;;;7.50;;
26080;SDS011;13991;51.174;4.438;2023-05-07T09:03:08;17.47;;;6.27;;
26080;SDS011;13991;51.174;4.438;2023-05-07T09:05:37;16.97;;;6.03;;
26080;SDS011;13991;51.174;4.438;2023-05-07T09:08:03;16.63;;;6.13;;
26080;SDS011;13991;51.174;4.438;2023-05-07T09:10:30;17.23;;;6.43;;
26080;SDS011;13991;51.174;4.438;2023-05-07T09:12:58;17.57;;;6.27;;
26080;SDS011;13991;51.174;4.438;2023-05-07T09:15:24;22.60;;;6.33;;
26080;SDS011;13991;51.174;4.438;2023-05-07T09:17:51;19.67;;;6.03;;
26080;SDS011;13991;51.174;4.438;2023-05-07T09:20:16;19.43;;;5.23;;
26080;SDS011;13991;51.174;4.438;2023-05-07T09:22:43;18.37;;;5.57;;
26080;SDS011;13991;51.174;4.438;2023-05-07T09:25:09;18.83;;;6.03;;
26080;SDS011;13991;51.174;4.438;2023-05-07T09:27:35;19.83;;;5.90;;
26080;SDS011;13991;51.174;4.438;2023-05-07T09:30:04;17.03;;;5.90;;
26080;SDS011;13991;51.174;4.438;2023-05-07T09:32:36;18.77;;;5.87;;
26080;SDS011;13991;51.174;4.438;2023-05-07T09:35:05;16.43;;;6.07;;
26080;SDS011;13991;51.174;4.438;2023-05-07T09:37:39;19.37;;;5.77;;
26080;SDS011;13991;51.174;4.438;2023-05-07T09:40:06;18.27;;;6.43;;
26080;SDS011;13991;51.174;4.438;2023-05-07T09:42:34;12.70;;;6.00;;
26080;SDS011;13991;51.174;4.438;2023-05-07T09:44:59;17.53;;;5.17;;
26080;SDS011;13991;51.174;4.438;2023-05-07T09:47:25;16.90;;;5.67;;
26080;SDS011;13991;51.174;4.438;2023-05-07T09:49:57;20.37;;;5.93;;
26080;SDS011;13991;51.174;4.438;2023-05-07T09:52:24;14.47;;;5.13;;
26080;SDS011;13991;51.174;4.438;2023-05-07T09:54:58;16.17;;;5.83;;
26080;SDS011;13991;51.174;4.438;2023-05-07T09:57:25;15.63;;;5.13;;
26080;SDS011;13991;51.174;4.438;2023-05-07T09:59:52;14.60;;;4.67;;
26080;SDS011;13991;51.174;4.438;2023-05-07T10:02:20;22.03;;;5.40;;
26080;SDS011;13991;51.174;4.438;2023-05-07T10:04:48;18.17;;;5.20;;
26080;SDS011;13991;51.174;4.438;2023-05-07T10:07:15;15.07;;;5.67;;
26080;SDS011;13991;51.174;4.438;2023-05-07T10:09:42;16.43;;;4.40;;
26080;SDS011;13991;51.174;4.438;2023-05-07T10:12:09;15.13;;;4.50;;
26080;SDS011;13991;51.174;4.438;2023-05-07T10:14:35;8.93;;;3.10;;
26080;SDS011;13991;51.174;4.438;2023-05-07T10:17:01;10.07;;;3.37;;
26080;SDS011;13991;51.174;4.438;2023-05-07T10:19:27;13.60;;;4.23;;
26080;SDS011;13991;51.174;4.438;2023-05-07T10:21:55;13.10;;;3.87;;
26080;SDS011;13991;51.174;4.438;2023-05-07T10:24:33;14.10;;;4.30;;
26080;SDS011;13991;51.174;4.438;2023-05-07T10:27:02;17.23;;;5.50;;
26080;SDS011;13991;51.174;4.438;2023-05-07T10:29:45;16.53;;;4.90;;
26080;SDS011;13991;51.174;4.438;2023-05-07T10:35:06;12.80;;;4.77;;
26080;SDS011;13991;51.174;4.438;2023-05-07T10:37:36;24.03;;;5.97;;
26080;SDS011;13991;51.174;4.438;2023-05-07T10:40:02;17.17;;;4.80;;
26080;SDS011;13991;51.174;4.438;2023-05-07T10:42:28;15.80;;;3.90;;
26080;SDS011;13991;51.174;4.438;2023-05-07T10:44:53;13.90;;;4.70;;
26080;SDS011;13991;51.174;4.438;2023-05-07T10:47:19;16.97;;;4.30;;
26080;SDS011;13991;51.174;4.438;2023-05-07T10:52:15;14.97;;;3.43;;
26080;SDS011;13991;51.174;4.438;2023-05-07T10:54:42;13.60;;;3.80;;
26080;SDS011;13991;51.174;4.438;2023-05-07T10:59:57;17.70;;;4.60;;
26080;SDS011;13991;51.174;4.438;2023-05-07T11:02:23;13.83;;;3.93;;
26080;SDS011;13991;51.174;4.438;2023-05-07T11:05:21;15.73;;;4.57;;
26080;SDS011;13991;51.174;4.438;2023-05-07T11:08:00;12.10;;;4.60;;
26080;SDS011;13991;51.174;4.438;2023-05-07T11:10:48;12.47;;;4.43;;
26080;SDS011;13991;51.174;4.438;2023-05-07T11:16:28;14.77;;;4.30;;
26080;SDS011;13991;51.174;4.438;2023-05-07T11:18:55;10.57;;;3.53;;
26080;SDS011;13991;51.174;4.438;2023-05-07T11:21:34;11.40;;;3.23;;
26080;SDS011;13991;51.174;4.438;2023-05-07T11:24:01;9.37;;;2.87;;
26080;SDS011;13991;51.174;4.438;2023-05-07T11:26:41;17.23;;;4.60;;
26080;SDS011;13991;51.174;4.438;2023-05-07T11:29:17;8.93;;;3.23;;
26080;SDS011;13991;51.174;4.438;2023-05-07T11:31:48;16.57;;;4.23;;
26080;SDS011;13991;51.174;4.438;2023-05-07T11:34:15;9.00;;;3.37;;
26080;SDS011;13991;51.174;4.438;2023-05-07T11:36:45;13.70;;;3.27;;
26080;SDS011;13991;51.174;4.438;2023-05-07T11:39:30;9.17;;;3.27;;
26080;SDS011;13991;51.174;4.438;2023-05-07T11:41:58;13.47;;;2.87;;
26080;SDS011;13991;51.174;4.438;2023-05-07T11:44:25;9.77;;;2.60;;
26080;SDS011;13991;51.174;4.438;2023-05-07T11:47:03;11.53;;;2.67;;
26080;SDS011;13991;51.174;4.438;2023-05-07T11:49:29;7.70;;;1.73;;
26080;SDS011;13991;51.174;4.438;2023-05-07T11:51:55;12.80;;;2.70;;
26080;SDS011;13991;51.174;4.438;2023-05-07T11:54:21;8.47;;;1.63;;
26080;SDS011;13991;51.174;4.438;2023-05-07T11:56:47;11.17;;;2.50;;
26080;SDS011;13991;51.174;4.438;2023-05-07T11:59:16;9.50;;;1.60;;
26080;SDS011;13991;51.174;4.438;2023-05-07T12:01:45;7.77;;;2.00;;
26080;SDS011;13991;51.174;4.438;2023-05-07T12:04:11;8.73;;;2.10;;
26080;SDS011;13991;51.174;4.438;2023-05-07T12:06:36;10.20;;;3.00;;
26080;SDS011;13991;51.174;4.438;2023-05-07T12:09:03;13.37;;;3.10;;
26080;SDS011;13991;51.174;4.438;2023-05-07T12:11:30;14.13;;;3.60;;
26080;SDS011;13991;51.174;4.438;2023-05-07T12:13:55;12.53;;;2.70;;
26080;SDS011;13991;51.174;4.438;2023-05-07T12:16:21;12.77;;;3.63;;
26080;SDS011;13991;51.174;4.438;2023-05-07T12:18:47;12.77;;;3.07;;
26080;SDS011;13991;51.174;4.438;2023-05-07T12:21:13;12.87;;;3.20;;
26080;SDS011;13991;51.174;4.438;2023-05-07T12:23:39;11.47;;;3.43;;
26080;SDS011;13991;51.174;4.438;2023-05-07T12:26:05;7.70;;;2.97;;
26080;SDS011;13991;51.174;4.438;2023-05-07T12:28:31;11.37;;;3.50;;
26080;SDS011;13991;51.174;4.438;2023-05-07T12:31:02;15.10;;;3.03;;
26080;SDS011;13991;51.174;4.438;2023-05-07T12:33:27;15.33;;;3.03;;
26080;SDS011;13991;51.174;4.438;2023-05-07T12:35:54;14.73;;;3.13;;
26080;SDS011;13991;51.174;4.438;2023-05-07T12:38:21;12.60;;;2.67;;
26080;SDS011;13991;51.174;4.438;2023-05-07T12:40:47;18.60;;;3.73;;
26080;SDS011;13991;51.174;4.438;2023-05-07T12:45:53;12.60;;;3.70;;
26080;SDS011;13991;51.174;4.438;2023-05-07T12:48:21;14.83;;;3.23;;
26080;SDS011;13991;51.174;4.438;2023-05-07T12:50:50;15.67;;;2.67;;
26080;SDS011;13991;51.174;4.438;2023-05-07T12:53:16;11.73;;;2.90;;
26080;SDS011;13991;51.174;4.438;2023-05-07T12:55:46;10.90;;;2.70;;
26080;SDS011;13991;51.174;4.438;2023-05-07T12:58:16;13.03;;;2.43;;
26080;SDS011;13991;51.174;4.438;2023-05-07T13:00:43;7.97;;;2.60;;
26080;SDS011;13991;51.174;4.438;2023-05-07T13:03:09;8.43;;;2.90;;
26080;SDS011;13991;51.174;4.438;2023-05-07T13:05:36;10.53;;;2.67;;
26080;SDS011;13991;51.174;4.438;2023-05-07T13:08:02;12.80;;;2.87;;
26080;SDS011;13991;51.174;4.438;2023-05-07T13:10:27;9.53;;;2.67;;
26080;SDS011;13991;51.174;4.438;2023-05-07T13:12:53;9.33;;;2.23;;
26080;SDS011;13991;51.174;4.438;2023-05-07T13:15:19;14.67;;;3.10;;
26080;SDS011;13991;51.174;4.438;2023-05-07T13:17:46;14.13;;;2.90;;
26080;SDS011;13991;51.174;4.438;2023-05-07T13:20:12;14.37;;;2.20;;
26080;SDS011;13991;51.174;4.438;2023-05-07T13:22:38;9.97;;;2.40;;
26080;SDS011;13991;51.174;4.438;2023-05-07T13:25:04;11.30;;;2.03;;
26080;SDS011;13991;51.174;4.438;2023-05-07T13:27:30;16.73;;;2.40;;
26080;SDS011;13991;51.174;4.438;2023-05-07T13:29:56;7.83;;;2.37;;
26080;SDS011;13991;51.174;4.438;2023-05-07T13:32:22;9.57;;;2.20;;
26080;SDS011;13991;51.174;4.438;2023-05-07T13:34:48;10.30;;;2.43;;
26080;SDS011;13991;51.174;4.438;2023-05-07T13:37:14;9.50;;;1.90;;
26080;SDS011;13991;51.174;4.438;2023-05-07T13:39:39;13.27;;;2.50;;
26080;SDS011;13991;51.174;4.438;2023-05-07T13:42:06;9.07;;;2.00;;
26080;SDS011;13991;51.174;4.438;2023-05-07T13:44:31;9.83;;;2.03;;
26080;SDS011;13991;51.174;4.438;2023-05-07T13:46:57;11.63;;;2.23;;
26080;SDS011;13991;51.174;4.438;2023-05-07T13:49:23;6.20;;;1.33;;
26080;SDS011;13991;51.174;4.438;2023-05-07T13:51:49;6.47;;;1.33;;
26080;SDS011;13991;51.174;4.438;2023-05-07T13:54:14;14.03;;;1.73;;
26080;SDS011;13991;51.174;4.438;2023-05-07T13:56:40;8.57;;;1.80;;
26080;SDS011;13991;51.174;4.438;2023-05-07T13:59:06;11.53;;;3.00;;
26080;SDS011;13991;51.174;4.438;2023-05-07T14:01:32;8.37;;;2.10;;
26080;SDS011;13991;51.174;4.438;2023-05-07T14:03:58;7.10;;;2.13;;
26080;SDS011;13991;51.174;4.438;2023-05-07T14:06:24;9.93;;;2.40;;
26080;SDS011;13991;51.174;4.438;2023-05-07T14:08:50;9.07;;;2.00;;
26080;SDS011;13991;51.174;4.438;2023-05-07T14:11:16;14.27;;;2.17;;
26080;SDS011;13991;51.174;4.438;2023-05-07T14:13:41;7.23;;;1.90;;
26080;SDS011;13991;51.174;4.438;2023-05-07T14:16:07;9.03;;;1.63;;
26080;SDS011;13991;51.174;4.438;2023-05-07T14:18:32;12.63;;;2.30;;
26080;SDS011;13991;51.174;4.438;2023-05-07T14:20:59;9.93;;;2.30;;
26080;SDS011;13991;51.174;4.438;2023-05-07T14:23:25;7.10;;;2.37;;
26080;SDS011;13991;51.174;4.438;2023-05-07T14:25:51;10.47;;;1.70;;
26080;SDS011;13991;51.174;4.438;2023-05-07T14:28:18;6.13;;;1.63;;
26080;SDS011;13991;51.174;4.438;2023-05-07T14:30:44;7.93;;;2.00;;
26080;SDS011;13991;51.174;4.438;2023-05-07T14:33:10;10.77;;;2.30;;
26080;SDS011;13991;51.174;4.438;2023-05-07T14:35:35;7.63;;;1.77;;
26080;SDS011;13991;51.174;4.438;2023-05-07T14:38:01;9.63;;;1.70;;
26080;SDS011;13991;51.174;4.438;2023-05-07T14:40:27;14.93;;;2.27;;
26080;SDS011;13991;51.174;4.438;2023-05-07T14:42:52;8.33;;;2.00;;
26080;SDS011;13991;51.174;4.438;2023-05-07T14:45:18;11.93;;;2.10;;